Time;durP1;ratioP1;P1;durP2;ratioP2;P2;SDS_P1;SDS_P2;PMS_P1;PMS_P2;Temp;Humidity;BMP_temperature;BMP_pressure;BME280_temperature;BME280_humidity;BME280_pressure;Samples;Min_cycle;Max_cycle;Signal;HPM_P1;HPM_P2
2022/04/25 00:00:56;;;;;;;3.55;1.92;;;;;;;8.98;67.13;100115.13;2050707;28;20399;-67
2022/04/25 00:02:00;;;;;;;4.85;2.05;;;;;;;8.99;66.58;100110.59;2065564;28;20278;-67
2022/04/25 00:03:04;;;;;;;8.95;2.60;;;;;;;9.03;66.85;100119.66;2049554;28;20294;-67
2022/04/25 00:04:06;;;;;;;8.07;2.90;;;;;;;9.01;66.51;100119.94;2051107;28;20309;-67
2022/04/25 00:05:12;;;;;;;5.22;2.40;;;;;;;9.00;67.05;100112.97;2065991;28;20793;-67
2022/04/25 00:06:16;;;;;;;6.63;2.08;;;;;;;9.07;66.94;100117.22;2066848;28;20289;-67
2022/04/25 00:07:20;;;;;;;6.57;2.30;;;;;;;9.13;66.85;100121.47;2065346;28;20789;-75
2022/04/25 00:08:25;;;;;;;7.95;2.10;;;;;;;9.05;66.38;100115.63;2066193;28;20285;-74
2022/04/25 00:09:28;;;;;;;9.00;1.85;;;;;;;8.99;66.55;100107.91;2058226;28;20297;-75
2022/04/25 00:10:31;;;;;;;6.90;2.50;;;;;;;9.00;66.78;100106.81;2065780;28;20285;-72
2022/04/25 00:11:35;;;;;;;9.52;2.65;;;;;;;9.01;66.96;100111.88;2057246;28;20663;-71
2022/04/25 00:12:42;;;;;;;7.40;2.20;;;;;;;9.00;66.95;100110.28;2050979;28;20290;-74
2022/04/25 00:13:45;;;;;;;7.63;2.45;;;;;;;9.02;66.56;100110.84;2058073;28;20317;-71
2022/04/25 00:14:47;;;;;;;10.00;2.70;;;;;;;9.09;66.47;100104.34;2053177;28;20301;-71
2022/04/25 00:15:52;;;;;;;8.05;2.20;;;;;;;9.10;66.96;100109.44;2049640;28;20287;-71
2022/04/25 00:16:56;;;;;;;10.38;2.45;;;;;;;9.07;66.31;100103.81;2058318;28;20293;-71
2022/04/25 00:18:01;;;;;;;8.00;2.30;;;;;;;9.14;66.88;100104.28;2057557;28;20301;-71
2022/04/25 00:19:03;;;;;;;10.65;2.53;;;;;;;9.12;66.40;100104.59;2050683;28;20293;-72
2022/04/25 00:20:08;;;;;;;9.90;2.35;;;;;;;9.13;66.74;100102.72;2057165;28;20293;-71
2022/04/25 00:21:10;;;;;;;7.00;2.25;;;;;;;9.15;66.20;100097.88;2065242;28;20281;-72
2022/04/25 00:22:14;;;;;;;7.25;2.72;;;;;;;9.11;66.23;100091.44;2068720;28;20280;-72
2022/04/25 00:23:16;;;;;;;6.53;2.40;;;;;;;9.07;66.82;100095.78;2073613;28;20296;-72
2022/04/25 00:24:23;;;;;;;6.60;1.90;;;;;;;9.02;66.78;100102.78;2074191;28;20312;-72
2022/04/25 00:25:28;;;;;;;7.65;2.45;;;;;;;9.03;66.41;100099.00;2073665;28;20284;-72
2022/04/25 00:26:35;;;;;;;7.47;2.40;;;;;;;9.02;67.25;100100.09;2065249;28;20313;-71
2022/04/25 00:27:36;;;;;;;7.95;2.30;;;;;;;9.00;66.36;100096.09;2067523;28;20304;-71
2022/04/25 00:28:38;;;;;;;7.18;2.58;;;;;;;8.99;66.35;100103.34;2073508;28;20300;-71
2022/04/25 00:29:40;;;;;;;5.25;2.30;;;;;;;9.04;66.92;100092.56;2064368;28;20820;-70
2022/04/25 00:30:50;;;;;;;4.45;2.10;;;;;;;8.97;67.03;100097.44;2057780;28;20289;-70
2022/04/25 00:31:52;;;;;;;6.38;2.53;;;;;;;8.95;66.90;100096.94;2050629;28;20815;-71
2022/04/25 00:32:57;;;;;;;7.13;2.30;;;;;;;8.99;67.33;100091.81;2058772;28;20809;-70
2022/04/25 00:33:59;;;;;;;8.23;2.35;;;;;;;9.01;67.15;100095.00;2073304;28;20307;-66
2022/04/25 00:35:06;;;;;;;8.93;2.42;;;;;;;9.01;67.11;100089.63;2073419;28;20708;-66
2022/04/25 00:36:10;;;;;;;12.55;2.30;;;;;;;9.04;66.78;100084.50;2073438;28;20289;-67
2022/04/25 00:37:20;;;;;;;8.70;2.35;;;;;;;9.01;67.01;100087.75;2073240;28;20285;-67
2022/04/25 00:38:24;;;;;;;5.78;1.90;;;;;;;9.07;66.53;100090.41;2057557;28;20286;-66
2022/04/25 00:39:28;;;;;;;6.18;2.10;;;;;;;9.08;66.80;100089.31;2057833;28;20291;-67
2022/04/25 00:40:34;;;;;;;6.05;2.10;;;;;;;9.03;66.83;100085.59;2042606;29;20287;-67
2022/04/25 00:41:41;;;;;;;7.88;2.30;;;;;;;9.04;66.94;100081.84;2043687;28;20826;-67
2022/04/25 00:42:48;;;;;;;5.93;2.10;;;;;;;8.98;66.87;100072.22;2057801;28;20282;-67
2022/04/25 00:44:00;;;;;;;8.45;2.05;;;;;;;8.95;67.35;100077.34;2058065;28;20282;-67
2022/04/25 00:45:03;;;;;;;6.70;2.20;;;;;;;9.00;66.84;100074.66;2065459;28;20283;-67
2022/04/25 00:46:20;;;;;;;7.85;2.58;;;;;;;8.91;66.66;100082.47;2065680;28;20282;-67
2022/04/25 00:47:23;;;;;;;7.43;2.13;;;;;;;8.85;67.07;100080.91;2066797;28;20893;-68
2022/04/25 00:48:28;;;;;;;7.78;2.45;;;;;;;8.84;67.49;100086.56;2072106;28;20289;-67
2022/04/25 00:49:37;;;;;;;7.68;2.40;;;;;;;8.85;67.44;100080.91;2065343;28;20273;-67
2022/04/25 00:50:45;;;;;;;10.18;2.40;;;;;;;8.87;67.27;100081.44;2065513;28;20697;-67
2022/04/25 00:51:51;;;;;;;9.95;2.58;;;;;;;8.75;67.35;100078.28;2057379;28;20325;-67
2022/04/25 00:52:53;;;;;;;10.15;2.25;;;;;;;8.72;67.70;100071.59;2058371;28;20294;-68
2022/04/25 00:53:55;;;;;;;7.75;2.30;;;;;;;8.76;67.69;100078.03;2057702;28;20298;-67
2022/04/25 00:55:04;;;;;;;7.90;2.47;;;;;;;8.81;67.46;100079.88;2065069;28;20657;-67
2022/04/25 00:56:09;;;;;;;10.63;3.03;;;;;;;8.81;67.69;100077.97;2058354;28;20301;-67
2022/04/25 00:57:11;;;;;;;9.35;2.13;;;;;;;8.84;67.30;100071.28;2057872;28;20285;-67
2022/04/25 00:58:20;;;;;;;9.75;2.10;;;;;;;8.75;67.70;100072.94;2065371;28;20701;-67
2022/04/25 00:59:25;;;;;;;9.20;2.28;;;;;;;8.80;67.75;100075.59;2057277;28;20290;-67
2022/04/25 01:00:27;;;;;;;7.35;1.92;;;;;;;8.80;67.83;100070.22;2050847;28;20293;-67
2022/04/25 01:01:31;;;;;;;8.60;2.10;;;;;;;8.84;67.59;100076.63;2060774;28;20285;-67
2022/04/25 01:02:38;;;;;;;7.85;2.40;;;;;;;8.81;67.56;100072.63;2065575;28;20284;-67
2022/04/25 01:03:41;;;;;;;8.20;2.47;;;;;;;8.81;67.41;100071.81;2072626;28;20285;-67
2022/04/25 01:04:46;;;;;;;7.65;2.05;;;;;;;8.81;67.65;100072.63;2065376;28;20324;-67
2022/04/25 01:05:54;;;;;;;7.10;2.17;;;;;;;8.84;67.71;100071.28;2058942;28;20286;-67
2022/04/25 01:06:59;;;;;;;8.95;2.20;;;;;;;8.91;67.72;100069.06;2065853;28;20285;-67
2022/04/25 01:08:10;;;;;;;8.32;2.10;;;;;;;8.83;67.94;100061.63;2057260;28;20290;-67
2022/04/25 01:09:21;;;;;;;9.40;2.25;;;;;;;8.83;67.79;100061.63;2044992;28;20295;-67
2022/04/25 01:10:26;;;;;;;8.68;1.83;;;;;;;8.85;67.94;100072.88;2051889;28;20291;-67
2022/04/25 01:11:28;;;;;;;7.43;2.90;;;;;;;8.81;67.30;100066.47;2057402;28;20294;-67
2022/04/25 01:12:31;;;;;;;10.05;2.13;;;;;;;8.79;67.84;100065.94;2065294;28;20277;-67
2022/04/25 01:13:35;;;;;;;10.68;2.30;;;;;;;8.83;68.07;100067.00;2065164;28;20289;-67
2022/04/25 01:14:37;;;;;;;10.07;2.50;;;;;;;8.85;67.83;100061.34;2057618;28;20837;-67
2022/04/25 01:15:43;;;;;;;9.38;2.50;;;;;;;8.90;67.61;100067.47;2066294;28;20293;-67
2022/04/25 01:16:48;;;;;;;9.35;2.42;;;;;;;8.86;67.55;100065.63;2064853;28;20293;-67
2022/04/25 01:17:53;;;;;;;7.53;2.45;;;;;;;8.85;67.99;100061.34;2059018;28;20278;-67
2022/04/25 01:18:54;;;;;;;7.68;2.40;;;;;;;8.87;67.53;100065.34;2036778;29;20300;-68
2022/04/25 01:19:59;;;;;;;6.35;2.67;;;;;;;8.86;67.25;100061.09;2045771;28;20294;-68
2022/04/25 01:21:02;;;;;;;8.18;2.40;;;;;;;8.90;67.30;100062.13;2050181;28;20312;-67
2022/04/25 01:22:19;;;;;;;6.50;2.40;;;;;;;8.90;67.38;100054.06;2059147;28;20298;-67
2022/04/25 01:27:33;;;;;;;5.57;2.20;;;;;;;8.96;66.94;100061.00;2064869;28;20304;-67
2022/04/25 01:28:35;;;;;;;8.05;2.28;;;;;;;8.95;67.21;100062.09;2066227;28;20297;-67
2022/04/25 01:29:37;;;;;;;7.45;2.17;;;;;;;8.96;67.05;100063.69;2069026;28;20285;-68
2022/04/25 01:30:42;;;;;;;9.73;2.20;;;;;;;8.96;67.16;100058.31;2065076;28;20285;-67
2022/04/25 01:31:45;;;;;;;14.05;2.50;;;;;;;8.98;66.95;100064.19;2064993;28;20293;-67
2022/04/25 01:32:47;;;;;;;10.38;2.95;;;;;;;9.02;66.71;100067.94;2065376;28;20657;-67
2022/04/25 01:33:50;;;;;;;6.00;2.38;;;;;;;9.01;66.87;100055.56;2073649;28;20281;-68
2022/04/25 01:34:53;;;;;;;7.07;2.10;;;;;;;9.00;67.03;100056.66;2081056;28;20663;-67
2022/04/25 01:35:56;;;;;;;6.78;2.00;;;;;;;9.02;67.49;100062.56;2072579;28;20699;-67
2022/04/25 01:37:05;;;;;;;7.07;2.22;;;;;;;9.05;67.14;100067.38;2057459;28;20782;-67
2022/04/25 01:38:08;;;;;;;6.82;2.30;;;;;;;9.08;67.06;100060.66;2059264;28;20860;-67
2022/04/25 01:39:16;;;;;;;12.85;2.50;;;;;;;9.11;66.87;100059.25;2066361;28;20289;-68
2022/04/25 01:40:24;;;;;;;6.38;1.90;;;;;;;9.12;66.96;100060.88;2073169;28;20277;-68
2022/04/25 01:41:27;;;;;;;4.70;2.00;;;;;;;9.12;67.37;100060.88;2073016;28;20796;-67
2022/04/25 01:42:29;;;;;;;9.48;3.20;;;;;;;9.11;66.94;100052.03;2057263;28;20293;-67
2022/04/25 01:43:37;;;;;;;13.55;2.60;;;;;;;9.15;66.64;100054.97;2058125;28;20813;-67
2022/04/25 01:44:44;;;;;;;5.50;1.85;;;;;;;9.18;67.23;100049.03;2066093;28;20285;-67
2022/04/25 01:45:49;;;;;;;8.90;2.30;;;;;;;9.19;67.10;100053.31;2065512;28;20120;-67
2022/04/25 01:46:53;;;;;;;9.25;2.25;;;;;;;9.16;66.96;100051.19;2066067;28;20745;-67
2022/04/25 01:47:56;;;;;;;7.68;1.98;;;;;;;9.11;67.20;100046.69;2057716;28;20750;-67
2022/04/25 01:48:58;;;;;;;4.75;2.10;;;;;;;9.15;66.66;100049.59;2057233;28;20294;-67
2022/04/25 01:50:03;;;;;;;8.85;2.17;;;;;;;9.15;66.33;100049.59;2057469;28;20845;-67
2022/04/25 01:51:05;;;;;;;7.70;2.20;;;;;;;9.04;66.83;100038.13;2057418;28;20298;-67
2022/04/25 01:52:17;;;;;;;4.28;2.28;;;;;;;9.00;66.66;100045.94;2057470;28;20425;-67
2022/04/25 01:53:21;;;;;;;6.60;2.10;;;;;;;8.99;67.10;100047.03;2052041;28;20302;-67
2022/04/25 01:54:26;;;;;;;7.45;2.10;;;;;;;9.00;66.90;100045.16;2048974;28;20310;-67
2022/04/25 01:55:31;;;;;;;8.23;2.20;;;;;;;9.00;67.48;100047.81;2065247;28;20297;-66
2022/04/25 01:56:36;;;;;;;8.68;2.47;;;;;;;9.03;67.10;100048.06;2064357;28;20787;-66
2022/04/25 01:57:41;;;;;;;9.45;2.10;;;;;;;9.05;67.36;100037.88;2058360;28;20293;-66
2022/04/25 01:58:42;;;;;;;12.57;2.40;;;;;;;9.08;67.12;100043.72;2064930;28;20630;-66
2022/04/25 01:59:45;;;;;;;5.15;2.03;;;;;;;9.12;66.79;100039.44;2064966;28;20677;-70
2022/04/25 02:00:53;;;;;;;7.18;2.45;;;;;;;9.10;66.79;100041.59;2065505;28;20304;-69
2022/04/25 02:02:01;;;;;;;9.80;2.95;;;;;;;9.17;66.90;100047.41;2065478;28;20293;-69
2022/04/25 02:03:05;;;;;;;6.22;2.38;;;;;;;9.17;66.42;100042.03;2055521;28;20301;-69
2022/04/25 02:04:12;;;;;;;10.38;2.85;;;;;;;9.19;66.93;100047.94;2049860;28;21089;-69
2022/04/25 02:05:15;;;;;;;10.13;2.40;;;;;;;9.21;66.62;100043.09;2064853;28;20643;-71
2022/04/25 02:06:16;;;;;;;11.85;2.60;;;;;;;9.28;66.34;100040.88;2064837;28;20320;-71
2022/04/25 02:07:21;;;;;;;5.03;2.47;;;;;;;9.22;66.83;100052.75;2061534;28;20309;-71
2022/04/25 02:08:26;;;;;;;7.85;2.70;;;;;;;9.23;66.68;100043.59;2057452;28;20666;-71
2022/04/25 02:09:30;;;;;;;7.15;2.10;;;;;;;9.28;66.71;100043.56;2056403;28;20290;-71
2022/04/25 02:10:38;;;;;;;7.85;2.58;;;;;;;9.24;66.71;100045.22;2058103;28;20286;-72
2022/04/25 02:11:44;;;;;;;9.55;3.08;;;;;;;9.24;66.41;100045.22;2064680;28;20301;-71
2022/04/25 02:12:51;;;;;;;7.43;2.88;;;;;;;9.24;66.67;100045.22;2057800;28;20305;-71
2022/04/25 02:13:57;;;;;;;8.50;2.63;;;;;;;9.19;66.44;100050.63;2057071;28;20290;-71
2022/04/25 02:15:01;;;;;;;6.85;2.45;;;;;;;9.20;66.22;100041.50;2069905;28;20287;-71
2022/04/25 02:16:05;;;;;;;7.47;2.63;;;;;;;9.25;67.05;100046.81;2068782;28;20649;-71
2022/04/25 02:17:07;;;;;;;7.47;2.42;;;;;;;9.12;67.30;100042.91;2065173;28;20285;-71
2022/04/25 02:18:14;;;;;;;5.85;2.28;;;;;;;9.11;67.11;100048.53;2064791;28;20293;-71
2022/04/25 02:19:22;;;;;;;7.18;2.53;;;;;;;9.17;67.09;100044.72;2064457;28;20289;-71
2022/04/25 02:20:25;;;;;;;7.22;2.90;;;;;;;9.13;66.97;100041.03;2055841;28;20282;-71
2022/04/25 02:21:27;;;;;;;6.22;2.47;;;;;;;9.16;66.87;100040.47;2056814;28;20294;-71
2022/04/25 02:22:35;;;;;;;8.82;2.75;;;;;;;9.24;66.64;100047.91;2056786;28;20290;-71
2022/04/25 02:23:37;;;;;;;7.90;2.28;;;;;;;9.23;66.71;100040.91;2057574;28;20778;-71
2022/04/25 02:24:45;;;;;;;9.65;2.30;;;;;;;9.26;66.61;100037.69;2065194;28;20277;-71
2022/04/25 02:25:49;;;;;;;7.55;2.78;;;;;;;9.27;66.65;100037.41;2065210;28;20837;-71
2022/04/25 02:26:59;;;;;;;6.82;2.53;;;;;;;9.20;66.65;100030.75;2064825;28;20293;-72
2022/04/25 02:28:06;;;;;;;5.93;2.00;;;;;;;9.13;67.38;100035.66;2064327;28;20297;-72
2022/04/25 02:29:08;;;;;;;9.57;2.53;;;;;;;9.12;67.03;100031.38;2056855;28;20798;-72
2022/04/25 02:30:13;;;;;;;6.40;2.33;;;;;;;9.16;67.32;100025.16;2057665;28;20298;-72
2022/04/25 02:31:16;;;;;;;10.90;2.78;;;;;;;9.21;66.69;100032.38;2072918;28;20308;-72
2022/04/25 02:32:27;;;;;;;11.93;3.15;;;;;;;9.20;67.15;100026.19;2064236;28;20294;-72
2022/04/25 02:33:32;;;;;;;11.73;2.50;;;;;;;9.20;66.65;100025.41;2043356;28;20287;-72
2022/04/25 02:34:36;;;;;;;9.27;2.67;;;;;;;9.16;67.37;100029.72;2058385;28;20278;-72
2022/04/25 02:35:41;;;;;;;9.75;2.55;;;;;;;9.22;66.98;100028.59;2057238;28;20301;-72
2022/04/25 02:36:45;;;;;;;6.25;2.42;;;;;;;9.26;67.23;100029.63;2057875;28;21094;-72
2022/04/25 02:37:47;;;;;;;6.15;2.25;;;;;;;9.23;67.09;100033.66;2072286;28;20728;-72
2022/04/25 02:38:52;;;;;;;12.07;2.78;;;;;;;9.21;67.16;100033.19;2072717;28;20347;-71
2022/04/25 02:39:56;;;;;;;9.45;2.38;;;;;;;9.16;67.56;100027.84;2057096;28;20302;-72
2022/04/25 02:41:04;;;;;;;9.23;3.10;;;;;;;9.11;67.78;100032.44;2057153;28;20639;-72
2022/04/25 02:42:07;;;;;;;11.50;3.05;;;;;;;9.09;67.50;100024.69;2065022;28;20749;-71
2022/04/25 02:43:16;;;;;;;8.63;2.53;;;;;;;9.14;67.27;100026.53;2058054;28;20786;-72
2022/04/25 02:44:20;;;;;;;10.90;2.55;;;;;;;9.19;67.70;100018.44;2065428;28;20781;-72
2022/04/25 02:45:21;;;;;;;9.13;2.80;;;;;;;9.25;67.57;100022.69;2064993;28;20313;-71
2022/04/25 02:46:25;;;;;;;7.35;2.60;;;;;;;9.26;67.23;100018.91;2057121;28;20760;-72
2022/04/25 02:47:34;;;;;;;6.50;2.70;;;;;;;9.24;66.75;100018.41;2058455;28;20781;-72
2022/04/25 02:48:37;;;;;;;8.90;2.70;;;;;;;9.22;67.02;100015.19;2072741;28;20288;-72
2022/04/25 02:49:39;;;;;;;5.35;2.60;;;;;;;9.18;67.13;100019.53;2072598;28;20339;-72
2022/04/25 02:50:42;;;;;;;8.13;2.50;;;;;;;9.16;67.57;100013.63;2064715;28;20304;-72
2022/04/25 02:51:46;;;;;;;12.77;2.60;;;;;;;9.17;67.88;100020.59;2065155;28;20301;-71
2022/04/25 02:52:53;;;;;;;10.45;2.50;;;;;;;9.24;67.56;100018.41;2065188;28;20297;-71
2022/04/25 02:53:59;;;;;;;6.90;2.30;;;;;;;9.29;67.46;100023.69;2058166;28;20294;-72
2022/04/25 02:55:03;;;;;;;11.80;3.15;;;;;;;9.32;67.37;100017.78;2058537;28;20683;-71
2022/04/25 02:56:08;;;;;;;14.07;3.13;;;;;;;9.37;66.93;100020.41;2065435;28;20293;-70
2022/04/25 02:57:13;;;;;;;10.90;2.92;;;;;;;9.37;66.78;100015.06;2072675;28;20296;-70
2022/04/25 02:58:20;;;;;;;9.73;2.85;;;;;;;9.36;66.70;100013.44;2069216;28;20288;-71
2022/04/25 02:59:24;;;;;;;7.32;2.55;;;;;;;9.38;66.79;100021.22;2065892;28;20292;-73
2022/04/25 03:00:26;;;;;;;9.65;2.45;;;;;;;9.38;66.45;100016.63;2065019;28;20634;-73
2022/04/25 03:01:35;;;;;;;8.68;2.70;;;;;;;9.37;66.79;100015.06;2068053;28;20665;-73
2022/04/25 03:02:38;;;;;;;8.80;3.00;;;;;;;9.37;66.57;100025.00;2080890;28;20284;-73
2022/04/25 03:03:42;;;;;;;9.18;2.80;;;;;;;9.25;66.90;100020.78;2072453;28;20295;-72
2022/04/25 03:04:46;;;;;;;9.38;3.00;;;;;;;9.31;67.02;100018.06;2064833;28;20285;-70
2022/04/25 03:05:49;;;;;;;6.07;2.50;;;;;;;9.32;67.10;100023.13;2072272;28;20300;-73
2022/04/25 03:06:59;;;;;;;10.30;2.50;;;;;;;9.32;67.17;100009.72;2072595;28;20299;-72
2022/04/25 03:08:04;;;;;;;8.65;2.78;;;;;;;9.29;67.21;100023.69;2033817;29;20296;-73
2022/04/25 03:09:11;;;;;;;9.50;2.60;;;;;;;9.22;67.13;100028.59;2034959;28;20047;-72
2022/04/25 03:10:15;;;;;;;12.50;3.08;;;;;;;9.25;67.56;100022.69;2064191;28;20286;-71
2022/04/25 03:11:18;;;;;;;6.10;2.53;;;;;;;9.31;67.18;100021.53;2070286;28;20276;-73
2022/04/25 03:12:20;;;;;;;9.93;2.75;;;;;;;9.36;66.92;100012.63;2064504;28;20282;-73
2022/04/25 03:13:27;;;;;;;8.00;2.63;;;;;;;9.42;66.82;100014.19;2064320;28;20702;-72
2022/04/25 03:14:30;;;;;;;7.72;3.30;;;;;;;9.40;67.10;100014.47;2049117;28;20310;-72
2022/04/25 03:15:46;;;;;;;7.10;2.40;;;;;;;9.35;67.22;100011.84;2056882;28;20294;-72
2022/04/25 03:16:56;;;;;;;10.15;3.00;;;;;;;9.38;67.08;100010.47;2072536;28;20285;-72
2022/04/25 03:17:59;;;;;;;8.50;3.10;;;;;;;9.37;67.37;100020.41;2072047;28;20281;-71
2022/04/25 03:19:02;;;;;;;7.05;2.55;;;;;;;9.39;67.16;100012.88;2064429;28;20285;-72
2022/04/25 03:20:10;;;;;;;7.95;2.70;;;;;;;9.48;67.05;100016.53;2061034;28;21003;-71
2022/04/25 03:21:13;;;;;;;6.05;2.58;;;;;;;9.53;67.13;100007.66;2056745;28;20286;-70
2022/04/25 03:22:17;;;;;;;11.23;2.47;;;;;;;9.56;66.61;100019.69;2049198;28;20866;-71
2022/04/25 03:23:25;;;;;;;7.75;2.70;;;;;;;9.60;66.45;100015.34;2065729;28;20713;-70
2022/04/25 03:24:30;;;;;;;9.40;2.78;;;;;;;9.56;66.43;100011.66;2064217;28;20819;-71
2022/04/25 03:25:32;;;;;;;11.35;2.97;;;;;;;9.56;66.43;100017.00;2057140;28;20766;-71
2022/04/25 03:26:37;;;;;;;7.88;2.67;;;;;;;9.52;66.32;100022.94;2057468;28;20274;-71
2022/04/25 03:27:39;;;;;;;8.48;3.53;;;;;;;9.52;66.34;100014.09;2056877;28;20788;-71
2022/04/25 03:28:41;;;;;;;7.75;2.63;;;;;;;9.52;66.46;100017.59;2056835;28;20278;-71
2022/04/25 03:29:45;;;;;;;7.95;2.65;;;;;;;9.50;66.16;100013.59;2063704;28;20277;-72
2022/04/25 03:30:50;;;;;;;8.48;2.75;;;;;;;9.52;66.39;100022.94;2056149;28;20286;-71
2022/04/25 03:31:54;;;;;;;7.35;2.58;;;;;;;9.52;66.51;100019.47;2064292;28;20281;-71
2022/04/25 03:32:58;;;;;;;10.25;3.17;;;;;;;9.58;66.34;100015.63;2064100;28;20309;-71
2022/04/25 03:34:00;;;;;;;7.63;2.72;;;;;;;9.56;66.08;100012.44;2064047;28;20266;-71
2022/04/25 03:35:07;;;;;;;14.07;2.78;;;;;;;9.57;66.26;100021.28;2056194;28;20285;-71
2022/04/25 03:36:16;;;;;;;6.43;2.72;;;;;;;9.57;66.22;100023.97;2050782;28;20282;-71
2022/04/25 03:37:26;;;;;;;11.45;2.72;;;;;;;9.55;66.53;100018.09;2067403;28;20637;-73
2022/04/25 03:38:30;;;;;;;7.68;2.55;;;;;;;9.57;66.83;100013.25;2056200;28;20042;-72
2022/04/25 03:39:37;;;;;;;8.25;2.42;;;;;;;9.60;66.50;100018.03;2049212;28;20283;-72
2022/04/25 03:40:43;;;;;;;8.00;2.33;;;;;;;9.60;66.22;100015.34;2056907;28;20286;-74
2022/04/25 03:41:50;;;;;;;7.93;2.42;;;;;;;9.52;66.38;100014.91;2056389;28;20282;-72
2022/04/25 03:42:57;;;;;;;9.18;2.50;;;;;;;9.46;66.13;100013.34;2064335;28;20285;-72
2022/04/25 03:43:59;;;;;;;6.78;2.40;;;;;;;9.45;67.02;100011.72;2063842;28;20290;-72
2022/04/25 03:45:09;;;;;;;7.15;2.60;;;;;;;9.47;66.90;100017.63;2048760;28;20303;-72
2022/04/25 03:46:17;;;;;;;8.70;2.25;;;;;;;9.48;66.35;100021.91;2051507;28;20302;-72
2022/04/25 03:47:29;;;;;;;5.97;2.28;;;;;;;9.52;66.69;100014.91;2049489;28;20298;-71
2022/04/25 03:48:32;;;;;;;6.43;2.45;;;;;;;9.55;66.39;100021.56;2058631;28;20301;-71
2022/04/25 03:49:35;;;;;;;8.85;2.35;;;;;;;9.57;66.68;100026.66;2055394;28;20294;-72
2022/04/25 03:50:37;;;;;;;7.80;2.20;;;;;;;9.60;66.29;100020.72;2056180;28;20290;-67
2022/04/25 03:51:41;;;;;;;8.88;2.60;;;;;;;9.58;66.48;100017.50;2055402;28;20297;-67
2022/04/25 03:52:45;;;;;;;7.80;2.63;;;;;;;9.56;66.41;100020.50;2041327;28;21096;-67
2022/04/25 03:53:52;;;;;;;11.18;2.35;;;;;;;9.62;66.64;100021.25;2049493;28;20294;-67
2022/04/25 03:57:39;;;;;;;6.72;2.53;;;;;;;9.64;66.15;100021.75;2064186;28;20789;-67
2022/04/25 03:58:42;;;;;;;9.82;2.53;;;;;;;9.64;66.53;100027.91;2048752;28;20290;-67
2022/04/25 03:59:43;;;;;;;11.05;3.15;;;;;;;9.64;65.95;100032.47;2056383;28;20289;-67
2022/04/25 04:00:45;;;;;;;9.93;2.80;;;;;;;9.64;65.83;100025.22;2063644;28;20709;-67
2022/04/25 04:01:47;;;;;;;6.53;2.38;;;;;;;9.65;65.51;100034.09;2061773;28;20293;-67
2022/04/25 04:02:57;;;;;;;10.20;2.53;;;;;;;9.67;66.07;100030.03;2071519;28;20745;-67
2022/04/25 04:04:06;;;;;;;8.18;2.22;;;;;;;9.68;65.87;100028.97;2070333;28;20285;-67
2022/04/25 04:05:09;;;;;;;7.40;2.80;;;;;;;9.59;66.23;100025.28;2065248;28;20293;-67
2022/04/25 04:06:13;;;;;;;8.82;2.70;;;;;;;9.58;66.31;100030.94;2071875;28;20308;-67
2022/04/25 04:07:16;;;;;;;6.45;2.40;;;;;;;9.58;66.80;100028.25;2062756;28;20289;-66
2022/04/25 04:08:18;;;;;;;10.15;2.90;;;;;;;9.58;66.50;100036.31;2056495;28;20753;-66
2022/04/25 04:10:43;;;;;;;9.27;2.45;;;;;;;9.57;66.33;100034.72;2050527;28;20301;-67
2022/04/25 04:11:47;;;;;;;8.40;2.78;;;;;;;9.59;66.86;100032.56;2051189;28;20290;-67
2022/04/25 04:12:50;;;;;;;6.88;2.55;;;;;;;9.59;66.36;100027.19;2048167;28;20310;-66
2022/04/25 04:13:55;;;;;;;8.25;2.63;;;;;;;9.66;66.70;100038.38;2041078;28;20295;-67
2022/04/25 04:14:59;;;;;;;10.38;2.90;;;;;;;9.65;66.46;100032.22;2056630;28;20290;-66
2022/04/25 04:16:07;;;;;;;9.55;2.63;;;;;;;9.62;66.32;100034.66;2064131;28;20654;-66
2022/04/25 04:17:12;;;;;;;7.38;2.60;;;;;;;9.65;66.61;100034.09;2064147;28;20323;-66
2022/04/25 04:18:19;;;;;;;8.88;2.72;;;;;;;9.63;66.28;100038.94;2041168;29;20699;-67
2022/04/25 04:19:21;;;;;;;7.10;2.88;;;;;;;9.65;66.14;100034.91;2042675;28;20728;-67
2022/04/25 04:20:23;;;;;;;12.98;2.90;;;;;;;9.69;66.31;100040.50;2056711;28;20297;-67
2022/04/25 04:21:26;;;;;;;6.22;3.00;;;;;;;9.67;66.25;100040.75;2064150;28;20309;-67
2022/04/25 04:22:34;;;;;;;9.02;2.75;;;;;;;9.68;65.96;100039.69;2048948;28;20810;-67
2022/04/25 04:23:41;;;;;;;6.88;2.80;;;;;;;9.72;66.05;100045.28;2056103;28;20293;-67
2022/04/25 04:24:43;;;;;;;14.20;3.15;;;;;;;9.75;66.35;100044.72;2058185;28;20298;-67
2022/04/25 04:25:47;;;;;;;11.35;3.05;;;;;;;9.72;65.92;100045.28;2065502;28;20289;-68
2022/04/25 04:26:49;;;;;;;10.48;2.72;;;;;;;9.64;66.62;100045.91;2065221;28;20281;-68
2022/04/25 04:27:52;;;;;;;11.30;2.55;;;;;;;9.65;66.48;100042.16;2058108;28;20290;-67
2022/04/25 04:28:56;;;;;;;9.05;2.97;;;;;;;9.61;66.64;100044.56;2056928;28;20293;-67
2022/04/25 04:30:09;;;;;;;8.55;2.67;;;;;;;9.65;66.33;100047.53;2064502;28;20285;-70
2022/04/25 04:31:11;;;;;;;7.63;2.90;;;;;;;9.66;66.03;100049.13;2065369;28;20643;-67
2022/04/25 04:32:16;;;;;;;6.45;2.45;;;;;;;9.70;66.81;100045.56;2068466;28;20649;-67
2022/04/25 04:33:17;;;;;;;7.57;2.40;;;;;;;9.73;66.22;100049.56;2070826;28;20289;-67
2022/04/25 04:34:19;;;;;;;10.45;2.40;;;;;;;9.78;66.36;100046.84;2062747;28;20832;-67
2022/04/25 04:36:42;;;;;;;6.53;2.65;;;;;;;9.81;65.70;100051.63;2066230;28;20286;-67
2022/04/25 04:37:48;;;;;;;6.68;2.50;;;;;;;9.70;66.55;100056.28;2060810;28;20293;-67
2022/04/25 04:38:55;;;;;;;6.75;2.60;;;;;;;9.69;66.47;100048.53;2054848;28;20282;-68
2022/04/25 04:41:22;;;;;;;7.30;2.50;;;;;;;9.74;66.17;100056.53;2056745;28;20368;-67
2022/04/25 04:42:27;;;;;;;5.72;2.40;;;;;;;9.72;66.27;100048.78;2064220;28;20289;-67
2022/04/25 04:43:29;;;;;;;7.25;2.63;;;;;;;9.69;66.65;100048.53;2066396;28;20301;-67
2022/04/25 04:44:31;;;;;;;11.93;3.10;;;;;;;9.72;66.05;100054.13;2048042;28;20670;-68
2022/04/25 04:45:36;;;;;;;3.83;2.40;;;;;;;9.74;66.28;100051.16;2056829;28;20294;-69
2022/04/25 04:46:39;;;;;;;10.63;2.67;;;;;;;9.75;65.98;100055.47;2063528;28;20313;-67
2022/04/25 04:47:41;;;;;;;9.82;2.97;;;;;;;9.76;66.26;100049.00;2064292;28;20840;-67
2022/04/25 04:48:45;;;;;;;10.95;3.00;;;;;;;9.63;66.77;100052.38;2063992;28;20805;-68
2022/04/25 04:49:51;;;;;;;7.60;2.45;;;;;;;9.57;66.71;100056.19;2049314;28;20293;-69
2022/04/25 04:50:56;;;;;;;9.00;2.92;;;;;;;9.59;67.14;100052.13;2065235;28;20796;-69
2022/04/25 04:52:04;;;;;;;7.72;2.45;;;;;;;9.62;66.71;100048.09;2064854;28;20297;-69
2022/04/25 04:53:07;;;;;;;9.23;3.05;;;;;;;9.55;66.68;100042.22;2056848;28;20678;-68
2022/04/25 04:54:12;;;;;;;8.85;2.53;;;;;;;9.49;66.71;100054.94;2064875;28;20285;-69
2022/04/25 04:55:21;;;;;;;5.78;2.45;;;;;;;9.46;67.24;100060.84;2055885;28;20294;-68
2022/04/25 04:56:26;;;;;;;7.38;2.60;;;;;;;9.47;66.89;100057.09;2050178;28;20283;-68
2022/04/25 04:57:30;;;;;;;7.32;2.45;;;;;;;9.48;66.86;100053.31;2049482;28;20295;-68
2022/04/25 04:58:34;;;;;;;8.43;2.45;;;;;;;9.44;67.26;100053.06;2056408;28;20305;-68
2022/04/25 04:59:37;;;;;;;8.15;2.70;;;;;;;9.42;66.76;100059.81;2063383;28;20282;-68
2022/04/25 05:00:44;;;;;;;8.90;2.75;;;;;;;9.40;67.40;100049.38;2063781;28;20412;-68
2022/04/25 05:01:48;;;;;;;13.00;2.60;;;;;;;9.45;67.72;100057.34;2070787;28;20331;-68
2022/04/25 05:02:50;;;;;;;12.05;2.90;;;;;;;9.45;67.48;100060.03;2068833;28;20297;-68
2022/04/25 05:03:58;;;;;;;8.65;2.80;;;;;;;9.45;67.45;100057.34;2069854;28;20285;-68
2022/04/25 05:05:04;;;;;;;8.73;2.55;;;;;;;9.47;66.73;100055.19;2064548;28;20288;-68
2022/04/25 05:06:07;;;;;;;12.18;3.17;;;;;;;9.48;67.19;100051.41;2067961;28;20273;-68
2022/04/25 05:07:12;;;;;;;6.15;2.47;;;;;;;9.51;67.27;100058.09;2068272;28;20281;-69
2022/04/25 05:08:14;;;;;;;10.00;3.15;;;;;;;9.48;66.81;100059.47;2068811;28;20293;-68
2022/04/25 05:09:19;;;;;;;13.02;2.88;;;;;;;9.48;67.42;100059.47;2067248;28;20293;-68
2022/04/25 05:10:23;;;;;;;8.13;2.60;;;;;;;9.50;66.68;100056.53;2067990;28;20285;-72
2022/04/25 05:11:29;;;;;;;5.65;2.20;;;;;;;9.47;67.18;100057.88;2067212;28;20277;-72
2022/04/25 05:12:33;;;;;;;7.45;2.85;;;;;;;9.54;66.78;100062.13;2057873;28;20309;-73
2022/04/25 05:13:39;;;;;;;10.48;2.60;;;;;;;9.61;67.11;100057.19;2054056;28;20294;-73
2022/04/25 05:14:42;;;;;;;7.65;2.75;;;;;;;9.64;67.03;100056.63;2067531;28;20748;-73
2022/04/25 05:15:47;;;;;;;8.73;2.60;;;;;;;9.65;66.52;100059.06;2066989;28;20531;-73